Time;durP1;ratioP1;P1;durP2;ratioP2;P2;SDS_P1;SDS_P2;PMS_P1;PMS_P2;Temp;Humidity;BMP_temperature;BMP_pressure;BME280_temperature;BME280_humidity;BME280_pressure;Samples;Min_cycle;Max_cycle;Signal;HPM_P1;HPM_P2
2022/03/11 00:01:16;;;;;;;0.00;0.00;;;7.30;62.90;;;;;;4089527;28;20103;-72
2022/03/11 00:03:40;;;;;;;0.00;0.00;;;7.20;63.30;;;;;;4102673;28;20478;-71
2022/03/11 00:06:03;;;;;;;0.00;0.00;;;7.00;63.60;;;;;;4102963;28;20051;-71
2022/03/11 00:08:25;;;;;;;0.00;0.00;;;7.10;63.20;;;;;;4088985;28;20414;-71
2022/03/11 00:10:48;;;;;;;0.00;0.00;;;7.00;63.10;;;;;;4102542;28;20051;-71
2022/03/11 00:13:15;;;;;;;0.00;0.00;;;7.10;62.90;;;;;;4102526;28;20059;-71
2022/03/11 00:15:40;;;;;;;0.00;0.00;;;7.20;62.60;;;;;;4102828;28;20107;-72
2022/03/11 00:18:06;;;;;;;0.00;0.00;;;7.20;62.30;;;;;;4116850;28;20059;-73
2022/03/11 00:20:31;;;;;;;0.00;0.00;;;7.20;62.20;;;;;;4112913;28;20126;-72
2022/03/11 00:22:56;;;;;;;0.00;0.00;;;7.20;62.20;;;;;;4086958;29;20058;-72
2022/03/11 00:25:20;;;;;;;0.00;0.00;;;7.20;62.20;;;;;;4108923;28;20540;-73
2022/03/11 00:27:47;;;;;;;0.00;0.00;;;7.00;62.40;;;;;;4128981;28;20047;-72
2022/03/11 00:30:12;;;;;;;0.00;0.00;;;6.90;62.70;;;;;;4118076;28;20062;-71
2022/03/11 00:32:35;;;;;;;0.00;0.00;;;7.00;62.60;;;;;;4118071;28;20130;-72
2022/03/11 00:34:57;;;;;;;0.00;0.00;;;7.00;63.00;;;;;;4132477;28;20046;-73
2022/03/11 00:37:19;;;;;;;0.00;0.00;;;7.00;63.20;;;;;;4095212;28;20055;-72
2022/03/11 00:39:42;;;;;;;0.00;0.00;;;7.00;63.40;;;;;;4129121;28;20444;-71
2022/03/11 00:42:06;;;;;;;0.00;0.00;;;7.10;63.80;;;;;;4105378;28;20047;-75
2022/03/11 00:44:31;;;;;;;0.00;0.00;;;7.00;64.10;;;;;;4117862;28;20109;-70
2022/03/11 00:46:53;;;;;;;0.00;0.00;;;7.00;64.30;;;;;;4104667;28;20047;-70
2022/03/11 00:49:15;;;;;;;0.00;0.00;;;7.00;64.10;;;;;;4118049;28;20085;-74
2022/03/11 00:51:40;;;;;;;0.00;0.00;;;7.00;63.80;;;;;;4117841;28;20046;-70
2022/03/11 00:54:04;;;;;;;0.00;0.00;;;7.00;63.50;;;;;;4118185;28;20047;-72
2022/03/11 00:56:28;;;;;;;0.00;0.00;;;7.00;63.00;;;;;;4117662;28;20043;-74
2022/03/11 00:58:52;;;;;;;0.00;0.00;;;6.90;62.80;;;;;;4104720;28;20051;-72
2022/03/11 01:01:20;;;;;;;0.00;0.00;;;6.90;62.90;;;;;;4118033;28;20039;-73
2022/03/11 01:03:46;;;;;;;0.00;0.00;;;6.80;62.80;;;;;;4105207;28;20042;-73
2022/03/11 01:06:12;;;;;;;0.00;0.00;;;6.80;62.60;;;;;;4117855;28;20143;-72
2022/03/11 01:08:37;;;;;;;0.00;0.00;;;6.80;62.80;;;;;;4118178;28;20389;-73
2022/03/11 01:11:05;;;;;;;0.00;0.00;;;6.70;62.90;;;;;;4117848;28;20046;-75
2022/03/11 01:13:27;;;;;;;0.00;0.00;;;6.70;62.80;;;;;;4118320;28;20481;-73
2022/03/11 01:15:52;;;;;;;0.00;0.00;;;6.70;62.80;;;;;;4104386;28;20051;-73
2022/03/11 01:18:17;;;;;;;0.00;0.00;;;6.70;62.80;;;;;;4117486;28;20174;-72
2022/03/11 01:20:42;;;;;;;0.00;0.00;;;6.70;62.70;;;;;;4105021;28;20070;-70
2022/03/11 01:23:04;;;;;;;0.00;0.00;;;6.70;62.70;;;;;;4110141;28;20075;-72
2022/03/11 01:25:28;;;;;;;0.00;0.00;;;6.70;62.60;;;;;;4096992;28;20039;-73
2022/03/11 01:27:52;;;;;;;0.00;0.00;;;6.60;62.80;;;;;;4102158;28;20051;-72
2022/03/11 01:30:16;;;;;;;0.00;0.00;;;6.40;63.60;;;;;;4100166;28;20047;-73
2022/03/11 01:32:40;;;;;;;0.00;0.00;;;6.30;63.70;;;;;;4106776;28;20139;-74
2022/03/11 01:35:02;;;;;;;0.00;0.00;;;6.40;63.40;;;;;;4117700;28;20546;-69
2022/03/11 01:37:27;;;;;;;0.00;0.00;;;6.30;63.50;;;;;;4104708;28;20074;-70
2022/03/11 01:39:51;;;;;;;0.00;0.00;;;6.40;63.30;;;;;;4117967;28;20053;-71
2022/03/11 01:42:13;;;;;;;0.00;0.00;;;6.40;63.30;;;;;;4130674;28;20058;-69
2022/03/11 01:44:36;;;;;;;0.00;0.00;;;6.40;63.20;;;;;;4117519;28;20046;-69
2022/03/11 01:47:00;;;;;;;0.00;0.00;;;6.40;63.10;;;;;;4130992;28;20046;-73
2022/03/11 01:49:22;;;;;;;0.00;0.00;;;6.30;63.30;;;;;;4117939;28;20046;-71
2022/03/11 01:51:48;;;;;;;0.00;0.00;;;6.30;63.50;;;;;;4117516;28;20055;-74
2022/03/11 01:54:13;;;;;;;0.00;0.00;;;6.40;63.50;;;;;;4117283;28;20118;-74
2022/03/11 01:56:37;;;;;;;0.00;0.00;;;6.40;63.60;;;;;;4117627;28;20042;-73
2022/03/11 01:59:06;;;;;;;0.00;0.00;;;6.40;63.60;;;;;;4117650;28;20049;-71
2022/03/11 02:01:28;;;;;;;0.00;0.00;;;6.40;63.80;;;;;;4105820;28;20051;-71
2022/03/11 02:03:52;;;;;;;0.00;0.00;;;6.40;64.10;;;;;;4093769;28;20124;-75
2022/03/11 02:06:15;;;;;;;0.00;0.00;;;6.30;64.50;;;;;;4119982;28;20373;-71
2022/03/11 02:08:42;;;;;;;0.00;0.00;;;6.30;64.30;;;;;;4120640;28;20050;-73
2022/03/11 02:11:07;;;;;;;0.00;0.00;;;6.20;64.40;;;;;;4120474;28;20047;-71
2022/03/11 02:13:49;;;;;;;0.00;0.00;;;6.10;64.00;;;;;;4120513;28;20065;-72
2022/03/11 02:16:12;;;;;;;;;;;6.20;63.90;;;;;;4107107;28;20066;-72
2022/03/11 02:18:37;;;;;;;0.00;0.00;;;6.10;63.90;;;;;;4120109;28;19944;-70
2022/03/11 02:20:59;;;;;;;0.00;0.00;;;6.10;64.10;;;;;;4120111;28;20053;-72
2022/03/11 02:23:21;;;;;;;0.00;0.00;;;6.00;64.30;;;;;;4133767;28;20039;-70
2022/03/11 02:25:43;;;;;;;0.00;0.00;;;5.90;64.80;;;;;;4117603;28;20142;-71
2022/03/11 02:28:09;;;;;;;0.00;0.00;;;5.90;65.00;;;;;;4087789;28;20044;-69
2022/03/11 02:30:32;;;;;;;0.00;0.00;;;5.90;65.20;;;;;;4101773;29;20058;-71
2022/03/11 02:32:54;;;;;;;0.00;0.00;;;5.90;65.40;;;;;;4103990;28;20058;-71
2022/03/11 02:35:19;;;;;;;0.00;0.00;;;5.90;65.30;;;;;;4090781;28;20055;-71
2022/03/11 02:37:42;;;;;;;0.00;0.00;;;6.00;65.20;;;;;;4104105;28;20051;-71
2022/03/11 02:40:05;;;;;;;0.00;0.00;;;6.00;65.20;;;;;;4104067;28;20051;-72
2022/03/11 02:42:31;;;;;;;0.00;0.00;;;6.00;65.50;;;;;;4090119;28;20390;-70
2022/03/11 02:45:02;;;;;;;0.00;0.00;;;6.00;65.70;;;;;;4104509;28;20133;-70
2022/03/11 02:47:26;;;;;;;0.00;0.00;;;6.00;65.70;;;;;;4101438;29;20536;-70
2022/03/11 02:49:51;;;;;;;0.00;0.00;;;5.90;65.60;;;;;;4088249;29;20047;-72
2022/03/11 02:52:14;;;;;;;0.00;0.00;;;5.90;65.30;;;;;;4087676;29;20079;-71
2022/03/11 02:54:36;;;;;;;0.00;0.00;;;6.00;65.20;;;;;;4101250;29;20394;-72
2022/03/11 02:57:01;;;;;;;0.00;0.00;;;5.90;65.20;;;;;;4087877;29;20097;-71
2022/03/11 02:59:23;;;;;;;0.00;0.00;;;6.00;65.30;;;;;;4101211;29;20050;-72
2022/03/11 03:01:45;;;;;;;0.00;0.00;;;6.00;65.00;;;;;;4101189;29;20059;-72
2022/03/11 03:04:07;;;;;;;0.00;0.00;;;6.00;64.90;;;;;;4087417;29;20134;-70
2022/03/11 03:06:32;;;;;;;0.00;0.00;;;5.90;65.50;;;;;;4088056;29;20053;-71
2022/03/11 03:08:54;;;;;;;0.00;0.00;;;5.90;64.70;;;;;;4087741;29;20044;-73
2022/03/11 03:11:16;;;;;;;0.00;0.00;;;5.80;64.80;;;;;;4100475;28;20051;-72
2022/03/11 03:13:38;;;;;;;0.00;0.00;;;5.70;65.00;;;;;;4087742;29;20505;-71
2022/03/11 03:16:00;;;;;;;0.00;0.00;;;5.60;65.20;;;;;;4087534;29;20549;-72
2022/03/11 03:18:26;;;;;;;0.00;0.00;;;5.60;65.40;;;;;;4100468;29;20402;-70
2022/03/11 03:20:51;;;;;;;0.00;0.00;;;5.60;65.50;;;;;;4087692;29;20390;-69
2022/03/11 03:23:13;;;;;;;0.00;0.00;;;5.60;65.50;;;;;;4087552;29;20062;-74
2022/03/11 03:25:38;;;;;;;0.00;0.00;;;5.50;65.60;;;;;;4087328;29;20091;-74
2022/03/11 03:28:02;;;;;;;0.00;0.00;;;5.50;65.50;;;;;;4087763;29;20470;-70
2022/03/11 03:30:24;;;;;;;0.00;0.00;;;5.60;65.20;;;;;;4060710;29;20048;-71
2022/03/11 03:32:48;;;;;;;0.00;0.00;;;5.70;65.10;;;;;;4077668;29;20162;-70
2022/03/11 03:35:11;;;;;;;0.00;0.00;;;5.60;65.40;;;;;;4100485;29;20051;-73
2022/03/11 03:37:35;;;;;;;0.00;0.00;;;5.50;65.80;;;;;;4087290;29;20051;-73
2022/03/11 03:40:00;;;;;;;0.00;0.00;;;5.50;66.00;;;;;;4100527;29;20065;-71
2022/03/11 03:42:22;;;;;;;0.00;0.00;;;5.60;65.90;;;;;;4100192;28;20054;-71
2022/03/11 03:44:47;;;;;;;0.00;0.00;;;5.60;66.00;;;;;;4073916;29;20052;-71
2022/03/11 03:47:09;;;;;;;0.00;0.00;;;5.50;66.10;;;;;;4113487;28;20103;-73
2022/03/11 03:49:31;;;;;;;0.00;0.00;;;5.10;66.90;;;;;;4103108;28;20051;-73
2022/03/11 03:51:55;;;;;;;0.00;0.00;;;5.20;67.00;;;;;;4116357;28;20043;-69
2022/03/11 03:54:18;;;;;;;0.00;0.00;;;5.30;67.00;;;;;;4104278;28;20533;-73
2022/03/11 03:56:47;;;;;;;0.00;0.00;;;5.20;66.80;;;;;;4102838;28;20039;-72
2022/03/11 03:59:15;;;;;;;0.00;0.00;;;5.30;66.50;;;;;;4102820;28;20055;-70
2022/03/11 04:01:41;;;;;;;0.00;0.00;;;5.30;66.30;;;;;;4089854;28;20039;-74
2022/03/11 04:04:06;;;;;;;0.00;0.00;;;5.40;66.10;;;;;;4116030;28;20390;-71
2022/03/11 04:06:33;;;;;;;0.00;0.00;;;5.40;65.80;;;;;;4115475;28;20131;-71
2022/03/11 04:09:01;;;;;;;0.00;0.00;;;5.40;65.50;;;;;;4076324;28;20051;-72
2022/03/11 04:11:29;;;;;;;0.00;0.00;;;5.40;65.50;;;;;;4089478;28;20572;-72
2022/03/11 04:13:56;;;;;;;0.00;0.00;;;5.40;65.60;;;;;;4116396;28;20066;-71
2022/03/11 04:16:20;;;;;;;0.00;0.00;;;5.30;65.50;;;;;;4118106;28;20153;-72
2022/03/11 04:18:45;;;;;;;0.00;0.00;;;5.10;65.80;;;;;;4118775;28;20125;-72
2022/03/11 04:21:09;;;;;;;0.00;0.00;;;5.20;66.00;;;;;;4115852;28;20445;-70
2022/03/11 04:23:30;;;;;;;0.00;0.00;;;5.20;66.00;;;;;;4101680;28;20490;-71
2022/03/11 04:25:53;;;;;;;0.00;0.00;;;5.10;66.00;;;;;;4102803;28;20381;-70
2022/03/11 04:28:17;;;;;;;0.00;0.00;;;5.20;66.30;;;;;;4102503;28;20055;-75
2022/03/11 04:30:39;;;;;;;0.00;0.00;;;5.20;66.50;;;;;;4102653;28;20462;-72
2022/03/11 04:33:01;;;;;;;0.00;0.00;;;5.20;66.70;;;;;;4102282;28;20097;-75
2022/03/11 04:35:23;;;;;;;0.00;0.00;;;5.20;66.90;;;;;;4102596;28;20043;-71
2022/03/11 04:37:48;;;;;;;0.00;0.00;;;5.10;67.40;;;;;;4102672;28;20092;-70
2022/03/11 04:40:12;;;;;;;0.00;0.00;;;5.10;67.70;;;;;;4117958;28;20433;-72
2022/03/11 04:42:39;;;;;;;0.00;0.00;;;5.00;67.80;;;;;;4119019;28;20444;-72
2022/03/11 04:45:04;;;;;;;0.00;0.00;;;5.00;67.60;;;;;;4118125;28;20057;-72
2022/03/11 04:47:27;;;;;;;0.00;0.00;;;5.10;67.40;;;;;;4104684;28;20529;-70
2022/03/11 04:49:52;;;;;;;0.00;0.00;;;5.10;67.60;;;;;;4118094;28;20461;-69
2022/03/11 04:52:14;;;;;;;0.00;0.00;;;5.10;67.60;;;;;;4118056;28;20089;-72
2022/03/11 04:54:37;;;;;;;0.00;0.00;;;5.10;67.70;;;;;;4117981;28;20126;-70
2022/03/11 04:57:02;;;;;;;0.00;0.00;;;5.00;67.70;;;;;;4118192;28;20047;-71
2022/03/11 04:59:26;;;;;;;0.00;0.00;;;4.90;68.10;;;;;;4118073;28;20130;-70
2022/03/11 05:01:48;;;;;;;0.00;0.00;;;4.90;68.20;;;;;;4118052;28;20476;-69
2022/03/11 05:04:13;;;;;;;0.00;0.00;;;4.90;68.00;;;;;;4131233;28;20054;-74
2022/03/11 05:06:35;;;;;;;0.00;0.00;;;5.00;67.90;;;;;;4105227;28;20438;-72
2022/03/11 05:08:57;;;;;;;0.00;0.00;;;5.00;68.00;;;;;;4118201;28;20050;-69
2022/03/11 05:11:22;;;;;;;0.00;0.00;;;5.00;68.20;;;;;;4104541;28;20058;-71
2022/03/11 05:13:44;;;;;;;0.00;0.00;;;4.80;68.60;;;;;;4118330;28;20488;-71
2022/03/11 05:16:11;;;;;;;0.00;0.00;;;4.80;68.40;;;;;;4118513;28;20094;-71
2022/03/11 05:18:36;;;;;;;0.00;0.00;;;4.90;68.10;;;;;;4104875;28;20035;-70
2022/03/11 05:20:58;;;;;;;0.00;0.00;;;4.90;68.10;;;;;;4118347;28;20485;-72
2022/03/11 05:23:21;;;;;;;0.00;0.00;;;4.90;68.00;;;;;;4131878;28;20050;-72
2022/03/11 05:25:43;;;;;;;0.00;0.00;;;4.90;68.00;;;;;;4115863;28;20042;-71
2022/03/11 05:28:08;;;;;;;0.00;0.00;;;4.80;68.40;;;;;;4116046;28;20445;-71
2022/03/11 05:30:32;;;;;;;0.00;0.00;;;4.70;68.60;;;;;;4115891;28;20053;-71
2022/03/11 05:32:57;;;;;;;0.00;0.00;;;4.70;68.70;;;;;;4105076;28;20351;-70
2022/03/11 05:35:20;;;;;;;0.00;0.00;;;4.70;68.90;;;;;;4119761;28;20097;-70
2022/03/11 05:37:46;;;;;;;0.00;0.00;;;4.70;68.90;;;;;;4108014;28;20058;-70
2022/03/11 05:40:11;;;;;;;0.00;0.00;;;4.70;69.20;;;;;;4118373;28;20051;-71
2022/03/11 05:42:34;;;;;;;0.00;0.00;;;4.60;69.20;;;;;;4105203;28;20485;-73
2022/03/11 05:44:58;;;;;;;0.00;0.00;;;4.70;69.30;;;;;;4091961;28;20546;-72
2022/03/11 05:47:20;;;;;;;0.00;0.00;;;4.80;69.20;;;;;;4091475;28;20082;-69
2022/03/11 05:49:42;;;;;;;0.00;0.00;;;4.80;69.30;;;;;;4104879;28;20043;-71
2022/03/11 05:52:07;;;;;;;0.00;0.00;;;4.80;69.50;;;;;;4134580;28;20468;-72
2022/03/11 05:54:29;;;;;;;0.00;0.00;;;4.70;69.60;;;;;;4134198;28;20046;-70
2022/03/11 05:56:59;;;;;;;0.00;0.00;;;4.80;69.60;;;;;;4134366;28;20100;-71
2022/03/11 05:59:26;;;;;;;0.00;0.00;;;4.80;69.70;;;;;;4120834;28;20477;-71
2022/03/11 06:01:48;;;;;;;0.00;0.00;;;4.90;69.80;;;;;;4120874;28;20051;-71
2022/03/11 06:04:11;;;;;;;0.00;0.00;;;4.80;69.80;;;;;;4105176;28;20478;-74
2022/03/11 06:06:33;;;;;;;0.00;0.00;;;4.90;70.00;;;;;;4120791;28;20057;-71
2022/03/11 06:08:57;;;;;;;0.00;0.00;;;4.90;70.10;;;;;;4107544;28;20039;-74
2022/03/11 06:11:19;;;;;;;0.00;0.00;;;4.90;70.40;;;;;;4120737;28;20057;-70
2022/03/11 06:13:43;;;;;;;0.00;0.00;;;4.80;71.10;;;;;;4107659;28;20050;-71
2022/03/11 06:16:10;;;;;;;0.00;0.00;;;4.80;71.40;;;;;;4120632;28;20047;-70
2022/03/11 06:18:34;;;;;;;0.00;0.00;;;5.00;71.40;;;;;;4120951;28;20527;-71
2022/03/11 06:20:59;;;;;;;0.00;0.00;;;5.20;71.20;;;;;;4134170;28;20045;-71
2022/03/11 06:23:21;;;;;;;0.00;0.00;;;5.40;71.00;;;;;;4120267;28;20085;-72
2022/03/11 06:25:43;;;;;;;0.00;0.00;;;5.50;71.10;;;;;;4120577;28;20818;-68
2022/03/11 06:28:05;;;;;;;0.00;0.00;;;5.50;71.00;;;;;;4119920;28;20043;-68
2022/03/11 06:30:27;;;;;;;0.00;0.00;;;5.40;71.50;;;;;;4120957;28;20070;-72
2022/03/11 06:32:52;;;;;;;0.00;0.00;;;5.50;71.50;;;;;;4120396;28;20047;-70
2022/03/11 06:35:20;;;;;;;0.00;0.00;;;5.30;71.80;;;;;;4120501;28;20046;-72
2022/03/11 06:37:46;;;;;;;0.00;0.00;;;5.30;72.50;;;;;;4120366;28;20047;-72
2022/03/11 06:40:12;;;;;;;0.00;0.00;;;5.60;72.30;;;;;;4131703;28;20046;-71
2022/03/11 06:42:42;;;;;;;0.00;0.00;;;5.90;72.00;;;;;;4107273;28;20046;-71
2022/03/11 06:45:08;;;;;;;0.00;0.00;;;6.10;71.50;;;;;;4107631;28;20062;-71
2022/03/11 06:47:33;;;;;;;0.00;0.00;;;6.20;70.90;;;;;;4117551;28;20116;-71
2022/03/11 06:49:58;;;;;;;0.00;0.00;;;6.00;71.60;;;;;;4104875;28;20050;-70
2022/03/11 06:52:22;;;;;;;0.00;0.00;;;5.90;72.00;;;;;;4117696;28;20051;-68
2022/03/11 06:54:44;;;;;;;0.00;0.00;;;5.90;72.40;;;;;;4112662;28;20069;-68
2022/03/11 06:57:09;;;;;;;0.00;0.00;;;6.10;72.10;;;;;;4075389;29;20491;-70
2022/03/11 06:59:33;;;;;;;0.00;0.00;;;6.20;71.60;;;;;;4075196;29;20072;-71
2022/03/11 07:01:55;;;;;;;0.00;0.00;;;6.00;72.00;;;;;;4103625;28;20146;-70
2022/03/11 07:04:22;;;;;;;0.00;0.00;;;5.90;73.10;;;;;;4103743;28;20462;-70
2022/03/11 07:06:47;;;;;;;0.00;0.00;;;6.00;72.60;;;;;;4104554;28;20043;-70
2022/03/11 07:09:10;;;;;;;0.00;0.00;;;5.90;72.90;;;;;;4104614;28;20047;-69
2022/03/11 07:11:32;;;;;;;0.00;0.00;;;6.00;72.90;;;;;;4090963;28;20052;-70
2022/03/11 07:13:54;;;;;;;0.00;0.00;;;6.20;71.50;;;;;;4104262;28;20055;-71
2022/03/11 07:16:16;;;;;;;0.00;0.00;;;6.40;71.30;;;;;;4090425;28;20048;-70
2022/03/11 07:18:38;;;;;;;0.00;0.00;;;6.70;70.60;;;;;;4103963;28;20047;-70
2022/03/11 07:21:05;;;;;;;0.00;0.00;;;6.90;69.50;;;;;;4103733;28;20043;-71
2022/03/11 07:23:30;;;;;;;0.00;0.00;;;6.70;69.80;;;;;;4116985;28;20049;-71
2022/03/11 07:25:54;;;;;;;0.00;0.00;;;6.70;70.80;;;;;;4103483;28;20066;-69
2022/03/11 07:28:16;;;;;;;0.00;0.00;;;6.70;70.70;;;;;;4103295;28;20468;-71
2022/03/11 07:30:39;;;;;;;0.00;0.00;;;7.00;70.50;;;;;;4116796;28;20050;-70
2022/03/11 07:33:06;;;;;;;0.00;0.00;;;7.20;69.60;;;;;;4103466;28;20051;-71
2022/03/11 07:35:28;;;;;;;0.00;0.00;;;7.90;68.80;;;;;;4103576;28;20051;-71
2022/03/11 07:37:55;;;;;;;0.00;0.00;;;8.50;66.40;;;;;;4090269;28;20043;-70
2022/03/11 07:40:20;;;;;;;0.00;0.00;;;9.00;65.20;;;;;;4103087;28;20061;-71
2022/03/11 07:42:45;;;;;;;0.00;0.00;;;9.50;64.30;;;;;;4103501;28;20039;-72
2022/03/11 07:45:17;;;;;;;0.00;0.00;;;9.80;63.00;;;;;;4116560;28;20049;-70
2022/03/11 07:47:40;;;;;;;;;;;9.80;61.60;;;;;;4103649;28;20415;-70
2022/03/11 07:50:03;;;;;;;0.00;0.00;;;9.50;62.00;;;;;;4089817;28;19966;-69
2022/03/11 07:52:27;;;;;;;0.00;0.00;;;9.30;61.40;;;;;;4089278;28;20182;-68
2022/03/11 07:54:52;;;;;;;0.00;0.00;;;9.10;62.10;;;;;;4103190;28;20051;-70
2022/03/11 07:57:18;;;;;;;0.00;0.00;;;9.30;62.30;;;;;;4089913;28;20125;-70
2022/03/11 07:59:42;;;;;;;0.00;0.00;;;9.70;61.60;;;;;;4089017;28;20051;-70
2022/03/11 08:02:08;;;;;;;0.00;0.00;;;10.00;60.30;;;;;;4087052;29;20142;-68
2022/03/11 08:04:33;;;;;;;0.00;0.00;;;10.20;60.00;;;;;;4087483;29;20063;-71
2022/03/11 08:07:01;;;;;;;0.00;0.00;;;10.50;59.30;;;;;;4086913;29;20053;-68
2022/03/11 08:09:27;;;;;;;0.00;0.00;;;10.50;58.70;;;;;;4100663;28;20385;-72
2022/03/11 08:11:49;;;;;;;0.00;0.00;;;10.80;58.10;;;;;;4100371;28;20054;-69
2022/03/11 08:14:13;;;;;;;0.00;0.00;;;10.90;57.10;;;;;;4115730;28;20381;-69
2022/03/11 08:16:35;;;;;;;0.00;0.00;;;11.00;56.40;;;;;;4089096;28;20073;-69
2022/03/11 08:19:01;;;;;;;0.00;0.00;;;10.90;56.60;;;;;;4103060;28;20047;-69
2022/03/11 08:21:25;;;;;;;0.00;0.00;;;10.80;57.20;;;;;;4102546;28;20054;-71
2022/03/11 08:23:47;;;;;;;0.00;0.00;;;11.30;56.40;;;;;;4089319;28;20062;-70
2022/03/11 08:26:12;;;;;;;0.00;0.00;;;10.90;56.40;;;;;;4102339;28;20075;-71
2022/03/11 08:28:40;;;;;;;0.00;0.00;;;10.60;57.40;;;;;;4100306;28;20090;-70
2022/03/11 08:31:23;;;;;;;0.00;0.00;;;10.80;57.30;;;;;;4086580;29;20079;-70
2022/03/11 08:33:45;;;;;;;0.00;0.00;;;11.30;57.40;;;;;;4087181;28;20056;-71
2022/03/11 08:36:16;;;;;;;0.00;0.00;;;11.90;56.40;;;;;;4103303;28;20051;-69
2022/03/11 08:38:41;;;;;;;0.00;0.00;;;12.60;54.40;;;;;;4086477;29;20051;-72
2022/03/11 08:41:11;;;;;;;0.00;0.00;;;13.00;53.00;;;;;;4086838;29;20051;-71
2022/03/11 08:43:38;;;;;;;0.00;0.00;;;12.90;52.60;;;;;;4086644;29;20126;-70
2022/03/11 08:46:01;;;;;;;0.00;0.00;;;12.40;52.80;;;;;;4077659;28;20352;-68
2022/03/11 08:48:28;;;;;;;0.00;0.00;;;11.30;55.30;;;;;;4102131;28;20552;-71
2022/03/11 08:50:50;;;;;;;0.00;0.00;;;11.00;55.70;;;;;;4102540;28;20047;-71
2022/03/11 08:53:12;;;;;;;0.00;0.00;;;11.50;55.30;;;;;;4102394;28;20055;-67
2022/03/11 08:55:37;;;;;;;0.00;0.00;;;12.00;54.40;;;;;;4102528;28;20051;-71
2022/03/11 08:58:01;;;;;;;0.00;0.00;;;12.30;53.10;;;;;;4102374;28;20054;-71
2022/03/11 09:00:25;;;;;;;0.00;0.00;;;12.40;52.90;;;;;;4115646;28;20098;-71
2022/03/11 09:02:52;;;;;;;0.00;0.00;;;12.80;51.40;;;;;;4102400;28;20050;-72
2022/03/11 09:05:20;;;;;;;0.00;0.00;;;13.00;51.30;;;;;;4102848;28;20066;-71
2022/03/11 09:07:42;;;;;;;0.00;0.00;;;13.30;51.20;;;;;;4103037;28;20079;-69
2022/03/11 09:10:09;;;;;;;0.00;0.00;;;13.20;50.60;;;;;;4115672;28;20054;-70
2022/03/11 09:12:31;;;;;;;0.00;0.00;;;13.10;50.80;;;;;;4118308;28;20057;-70
2022/03/11 09:14:56;;;;;;;0.00;0.00;;;12.30;52.10;;;;;;4105175;28;20050;-70
2022/03/11 09:17:18;;;;;;;0.00;0.00;;;12.00;53.40;;;;;;4118331;28;20145;-72
2022/03/11 09:19:46;;;;;;;0.00;0.00;;;12.10;53.10;;;;;;4117554;28;20058;-72
2022/03/11 09:22:32;;;;;;;0.00;0.00;;;12.80;52.00;;;;;;4088767;29;20048;-70
2022/03/11 09:24:57;;;;;;;0.00;0.00;;;13.30;50.70;;;;;;4118438;28;20051;-72
2022/03/11 09:27:23;;;;;;;0.00;0.00;;;13.50;50.00;;;;;;4091612;29;20056;-73
2022/03/11 09:29:48;;;;;;;0.00;0.00;;;13.50;50.00;;;;;;4118364;28;20441;-72
2022/03/11 09:32:12;;;;;;;0.00;0.00;;;12.60;51.30;;;;;;4108112;28;20611;-69
2022/03/11 09:34:37;;;;;;;0.00;0.00;;;12.10;51.30;;;;;;4121665;28;20051;-70
2022/03/11 09:37:04;;;;;;;0.00;0.00;;;12.00;53.30;;;;;;4123329;28;20058;-70
2022/03/11 09:39:28;;;;;;;0.00;0.00;;;12.80;51.50;;;;;;4136895;28;20078;-69
2022/03/11 09:41:51;;;;;;;0.00;0.00;;;13.80;49.10;;;;;;4137097;28;20074;-73
2022/03/11 09:44:16;;;;;;;0.00;0.00;;;14.40;47.80;;;;;;4109854;28;20078;-72
2022/03/11 09:46:41;;;;;;;0.00;0.00;;;14.60;46.90;;;;;;4109968;28;20085;-70
2022/03/11 09:49:03;;;;;;;0.00;0.00;;;15.30;46.60;;;;;;4123755;28;20403;-70
2022/03/11 09:51:28;;;;;;;0.00;0.00;;;15.90;45.50;;;;;;4137069;28;20054;-72
2022/03/11 09:53:51;;;;;;;0.00;0.00;;;16.00;44.30;;;;;;4109976;28;20066;-71
2022/03/11 09:56:14;;;;;;;0.00;0.00;;;16.50;44.00;;;;;;4109441;28;20055;-73
2022/03/11 09:58:41;;;;;;;0.00;0.00;;;16.50;43.50;;;;;;4123320;28;20094;-70
2022/03/11 10:01:06;;;;;;;0.00;0.00;;;16.80;44.40;;;;;;4123257;28;20485;-69
2022/03/11 10:03:31;;;;;;;0.00;0.00;;;16.50;43.60;;;;;;4136848;28;20056;-71
2022/03/11 10:05:54;;;;;;;0.00;0.00;;;16.90;43.90;;;;;;4136834;28;20112;-71
2022/03/11 10:08:32;;;;;;;0.00;0.00;;;17.50;43.40;;;;;;4110091;28;20085;-72
2022/03/11 10:11:26;;;;;;;0.00;0.00;;;17.80;42.50;;;;;;4123490;28;20093;-71
2022/03/11 10:13:51;;;;;;;0.00;0.00;;;18.40;42.30;;;;;;4123516;28;20042;-72
2022/03/11 10:16:29;;;;;;;0.00;0.00;;;18.70;42.00;;;;;;4096934;28;20034;-73
2022/03/11 10:18:55;;;;;;;0.00;0.00;;;19.00;41.90;;;;;;4110631;28;20039;-73
2022/03/11 10:21:17;;;;;;;0.00;0.00;;;19.20;40.90;;;;;;4098656;28;20062;-71
2022/03/11 10:23:49;;;;;;;0.00;0.00;;;19.50;40.60;;;;;;4091317;28;20052;-72
2022/03/11 10:26:14;;;;;;;0.00;0.00;;;19.80;40.70;;;;;;4104388;28;20697;-68
2022/03/11 10:28:36;;;;;;;0.00;0.00;;;19.50;40.30;;;;;;4092913;28;20050;-69
2022/03/11 10:31:09;;;;;;;0.00;0.00;;;19.50;40.00;;;;;;4111835;28;20490;-72
2022/03/11 10:33:31;;;;;;;0.00;0.00;;;19.40;40.00;;;;;;4094787;28;20127;-70
2022/03/11 10:35:55;;;;;;;0.00;0.00;;;19.30;39.80;;;;;;4091400;28;20090;-71
2022/03/11 10:38:20;;;;;;;0.00;0.00;;;19.50;39.20;;;;;;4089840;28;20048;-73
2022/03/11 10:40:58;;;;;;;0.00;0.00;;;19.50;37.90;;;;;;4104857;28;20051;-71
2022/03/11 10:43:25;;;;;;;0.00;0.00;;;19.60;37.80;;;;;;4104223;28;20053;-72
2022/03/11 10:45:49;;;;;;;0.00;0.00;;;19.30;38.70;;;;;;4104176;28;20047;-70
2022/03/11 10:48:12;;;;;;;0.00;0.00;;;19.60;38.00;;;;;;4103917;28;20062;-72
2022/03/11 10:50:38;;;;;;;0.00;0.00;;;20.10;37.50;;;;;;4103968;28;20062;-71
2022/03/11 10:53:05;;;;;;;0.00;0.00;;;20.20;36.70;;;;;;4077468;28;20058;-70
2022/03/11 10:55:28;;;;;;;0.00;0.00;;;19.90;37.00;;;;;;4103983;28;20529;-71
2022/03/11 10:58:00;;;;;;;0.00;0.00;;;20.50;36.70;;;;;;4114563;28;20046;-71
2022/03/11 11:00:37;;;;;;;0.00;0.00;;;20.90;35.90;;;;;;4103433;28;20059;-70
2022/03/11 11:03:01;;;;;;;0.00;0.00;;;21.10;36.40;;;;;;4094535;28;20051;-72
2022/03/11 11:05:25;;;;;;;0.00;0.00;;;21.60;35.80;;;;;;4127598;28;20043;-71
2022/03/11 11:07:50;;;;;;;0.00;0.00;;;22.00;34.70;;;;;;4120179;28;20046;-71
2022/03/11 11:10:18;;;;;;;0.00;0.00;;;21.90;33.60;;;;;;4106236;28;20462;-70
2022/03/11 11:12:45;;;;;;;0.00;0.00;;;21.60;33.60;;;;;;4120158;28;20054;-70
2022/03/11 11:15:12;;;;;;;0.00;0.00;;;22.10;33.80;;;;;;4119845;28;20421;-70
2022/03/11 11:17:38;;;;;;;0.00;0.00;;;22.40;32.90;;;;;;4120138;28;20653;-70
2022/03/11 11:20:02;;;;;;;0.00;0.00;;;22.20;32.90;;;;;;4106563;28;20219;-71
2022/03/11 11:22:26;;;;;;;0.00;0.00;;;22.50;32.70;;;;;;4119541;28;20133;-71
2022/03/11 11:24:52;;;;;;;0.00;0.00;;;22.80;32.30;;;;;;4106088;28;20090;-71
2022/03/11 11:27:20;;;;;;;0.00;0.00;;;22.80;31.60;;;;;;4119694;28;20146;-72
2022/03/11 11:29:42;;;;;;;0.00;0.00;;;22.90;31.20;;;;;;4119645;28;20559;-70
2022/03/11 11:32:10;;;;;;;0.00;0.00;;;22.90;31.30;;;;;;4119284;28;20134;-71
2022/03/11 11:34:39;;;;;;;0.00;0.00;;;23.00;30.80;;;;;;4119861;28;20385;-71
2022/03/11 11:37:08;;;;;;;0.00;0.00;;;22.30;31.20;;;;;;4121282;28;20129;-71
2022/03/11 11:39:39;;;;;;;0.00;0.00;;;22.40;31.30;;;;;;4119299;28;20050;-71
2022/03/11 11:42:08;;;;;;;0.00;0.00;;;22.80;31.20;;;;;;4092981;28;20106;-74
2022/03/11 11:44:38;;;;;;;0.00;0.00;;;23.20;31.00;;;;;;4106440;28;20067;-72
2022/03/11 11:47:16;;;;;;;0.00;0.00;;;23.20;31.40;;;;;;4132780;28;20046;-72
2022/03/11 11:49:47;;;;;;;0.00;0.00;;;24.00;30.90;;;;;;4119366;28;20071;-71
2022/03/11 11:52:24;;;;;;;0.00;0.00;;;24.30;30.50;;;;;;4118965;28;20437;-72
2022/03/11 11:54:46;;;;;;;0.00;0.00;;;24.60;30.10;;;;;;4118999;28;20046;-72
2022/03/11 11:57:16;;;;;;;0.00;0.00;;;24.50;29.90;;;;;;4119127;28;20069;-73
2022/03/11 11:59:44;;;;;;;0.00;0.00;;;24.80;29.80;;;;;;4106150;28;20434;-72
2022/03/11 12:02:27;;;;;;;0.00;0.00;;;25.20;29.70;;;;;;4118687;28;20103;-72
2022/03/11 12:04:51;;;;;;;0.00;0.00;;;25.20;29.00;;;;;;4118887;28;20085;-69
2022/03/11 12:07:15;;;;;;;0.00;0.00;;;25.00;28.70;;;;;;4105737;28;20062;-71
2022/03/11 12:09:45;;;;;;;0.00;0.00;;;24.40;29.20;;;;;;4119231;28;20046;-72
2022/03/11 12:12:24;;;;;;;0.00;0.00;;;24.20;29.50;;;;;;4103066;28;20130;-72
2022/03/11 12:15:00;;;;;;;0.00;0.00;;;23.80;30.00;;;;;;4118628;28;20094;-72
2022/03/11 12:18:02;;;;;;;0.00;0.00;;;23.60;30.10;;;;;;4129940;28;20050;-71
2022/03/11 12:20:45;;;;;;;0.00;0.00;;;23.70;30.20;;;;;;4118483;28;20058;-69
2022/03/11 12:23:11;;;;;;;0.00;0.00;;;24.00;30.00;;;;;;4118582;28;20057;-72
2022/03/11 12:25:54;;;;;;;0.00;0.00;;;23.40;29.80;;;;;;4118851;28;20065;-69
2022/03/11 12:28:20;;;;;;;0.00;0.00;;;23.00;30.10;;;;;;4132038;28;20073;-70
2022/03/11 12:30:48;;;;;;;0.00;0.00;;;22.70;30.70;;;;;;4118647;28;20055;-70
2022/03/11 12:33:23;;;;;;;0.00;0.00;;;21.40;31.20;;;;;;4118832;28;20510;-70
2022/03/11 12:35:47;;;;;;;0.00;0.00;;;21.30;32.00;;;;;;4118750;28;20050;-71
2022/03/11 12:38:16;;;;;;;0.00;0.00;;;21.60;31.50;;;;;;4118526;28;20047;-71
2022/03/11 12:40:42;;;;;;;0.00;0.00;;;20.50;31.90;;;;;;4118697;28;20042;-70
2022/03/11 12:43:11;;;;;;;0.00;0.00;;;20.50;32.70;;;;;;4105351;28;20393;-72